sensor_id;sensor_type;location;lat;lon;timestamp;P1;durP1;ratioP1;P2;durP2;ratioP2
73672;SDS011;61972;19.480;-99.240;2023-10-08T00:00:26;4.63;;;1.80;;
73672;SDS011;61972;19.480;-99.240;2023-10-08T00:03:10;33.83;;;2.95;;
73672;SDS011;61972;19.480;-99.240;2023-10-08T00:05:38;30.00;;;3.30;;
73672;SDS011;61972;19.480;-99.240;2023-10-08T00:08:05;20.50;;;3.17;;
73672;SDS011;61972;19.480;-99.240;2023-10-08T00:10:35;20.90;;;2.78;;
73672;SDS011;61972;19.480;-99.240;2023-10-08T00:13:05;14.13;;;2.10;;
73672;SDS011;61972;19.480;-99.240;2023-10-08T00:15:38;11.48;;;2.38;;
73672;SDS011;61972;19.480;-99.240;2023-10-08T00:18:18;11.50;;;2.17;;
73672;SDS011;61972;19.480;-99.240;2023-10-08T00:20:45;5.90;;;2.03;;
73672;SDS011;61972;19.480;-99.240;2023-10-08T00:23:41;5.25;;;2.00;;
73672;SDS011;61972;19.480;-99.240;2023-10-08T00:26:14;6.50;;;2.07;;
73672;SDS011;61972;19.480;-99.240;2023-10-08T00:28:44;5.03;;;2.08;;
73672;SDS011;61972;19.480;-99.240;2023-10-08T00:31:14;4.43;;;2.05;;
73672;SDS011;61972;19.480;-99.240;2023-10-08T00:33:42;6.88;;;2.20;;
73672;SDS011;61972;19.480;-99.240;2023-10-08T00:36:10;3.78;;;2.10;;
73672;SDS011;61972;19.480;-99.240;2023-10-08T00:38:47;4.07;;;1.93;;
73672;SDS011;61972;19.480;-99.240;2023-10-08T00:41:19;3.58;;;1.85;;
73672;SDS011;61972;19.480;-99.240;2023-10-08T00:43:48;4.72;;;2.17;;
73672;SDS011;61972;19.480;-99.240;2023-10-08T00:46:16;3.20;;;2.13;;
73672;SDS011;61972;19.480;-99.240;2023-10-08T00:49:03;3.00;;;2.05;;
73672;SDS011;61972;19.480;-99.240;2023-10-08T00:51:47;4.47;;;1.90;;
73672;SDS011;61972;19.480;-99.240;2023-10-08T00:54:33;4.25;;;1.90;;
73672;SDS011;61972;19.480;-99.240;2023-10-08T00:57:17;3.17;;;1.98;;
73672;SDS011;61972;19.480;-99.240;2023-10-08T00:59:47;5.70;;;1.85;;
73672;SDS011;61972;19.480;-99.240;2023-10-08T01:02:21;3.90;;;1.70;;
73672;SDS011;61972;19.480;-99.240;2023-10-08T01:04:54;5.97;;;1.80;;
73672;SDS011;61972;19.480;-99.240;2023-10-08T01:07:21;4.18;;;1.75;;
73672;SDS011;61972;19.480;-99.240;2023-10-08T01:09:49;4.00;;;1.73;;
73672;SDS011;61972;19.480;-99.240;2023-10-08T01:12:20;5.28;;;1.88;;
73672;SDS011;61972;19.480;-99.240;2023-10-08T01:14:50;7.28;;;2.10;;
73672;SDS011;61972;19.480;-99.240;2023-10-08T01:17:19;3.97;;;1.60;;
73672;SDS011;61972;19.480;-99.240;2023-10-08T01:19:52;7.68;;;1.70;;
73672;SDS011;61972;19.480;-99.240;2023-10-08T01:22:37;3.08;;;1.88;;
73672;SDS011;61972;19.480;-99.240;2023-10-08T01:25:05;6.03;;;1.60;;
73672;SDS011;61972;19.480;-99.240;2023-10-08T01:27:35;7.70;;;1.67;;
73672;SDS011;61972;19.480;-99.240;2023-10-08T01:30:02;4.70;;;1.57;;
73672;SDS011;61972;19.480;-99.240;2023-10-08T01:32:39;3.33;;;1.63;;
73672;SDS011;61972;19.480;-99.240;2023-10-08T01:35:06;4.53;;;2.03;;
73672;SDS011;61972;19.480;-99.240;2023-10-08T01:37:47;4.20;;;1.50;;
73672;SDS011;61972;19.480;-99.240;2023-10-08T01:40:14;6.22;;;1.80;;
73672;SDS011;61972;19.480;-99.240;2023-10-08T01:42:40;7.53;;;1.80;;
73672;SDS011;61972;19.480;-99.240;2023-10-08T01:45:07;4.30;;;1.63;;
73672;SDS011;61972;19.480;-99.240;2023-10-08T01:47:35;3.47;;;1.80;;
73672;SDS011;61972;19.480;-99.240;2023-10-08T01:50:01;3.25;;;1.50;;
73672;SDS011;61972;19.480;-99.240;2023-10-08T01:52:31;2.90;;;1.80;;
73672;SDS011;61972;19.480;-99.240;2023-10-08T01:54:57;6.83;;;1.50;;
73672;SDS011;61972;19.480;-99.240;2023-10-08T01:57:23;3.72;;;1.52;;
73672;SDS011;61972;19.480;-99.240;2023-10-08T01:59:49;4.53;;;1.73;;
73672;SDS011;61972;19.480;-99.240;2023-10-08T02:02:15;3.28;;;1.33;;
73672;SDS011;61972;19.480;-99.240;2023-10-08T02:04:42;4.60;;;1.70;;
73672;SDS011;61972;19.480;-99.240;2023-10-08T02:07:09;2.93;;;1.27;;
73672;SDS011;61972;19.480;-99.240;2023-10-08T02:09:40;2.72;;;1.50;;
73672;SDS011;61972;19.480;-99.240;2023-10-08T02:12:07;3.28;;;1.67;;
73672;SDS011;61972;19.480;-99.240;2023-10-08T02:14:33;2.70;;;1.45;;
73672;SDS011;61972;19.480;-99.240;2023-10-08T02:17:03;2.92;;;1.50;;
73672;SDS011;61972;19.480;-99.240;2023-10-08T02:19:34;2.70;;;1.30;;
73672;SDS011;61972;19.480;-99.240;2023-10-08T02:22:02;2.60;;;1.27;;
73672;SDS011;61972;19.480;-99.240;2023-10-08T02:24:34;2.13;;;1.33;;
73672;SDS011;61972;19.480;-99.240;2023-10-08T02:27:01;5.13;;;1.50;;
73672;SDS011;61972;19.480;-99.240;2023-10-08T02:29:28;1.85;;;1.33;;
73672;SDS011;61972;19.480;-99.240;2023-10-08T02:31:56;2.50;;;1.20;;
73672;SDS011;61972;19.480;-99.240;2023-10-08T02:34:33;2.40;;;1.30;;
73672;SDS011;61972;19.480;-99.240;2023-10-08T02:37:00;2.53;;;1.50;;
73672;SDS011;61972;19.480;-99.240;2023-10-08T02:39:29;2.25;;;1.20;;
73672;SDS011;61972;19.480;-99.240;2023-10-08T02:41:58;3.53;;;1.30;;
73672;SDS011;61972;19.480;-99.240;2023-10-08T02:44:25;2.23;;;1.20;;
73672;SDS011;61972;19.480;-99.240;2023-10-08T02:46:52;3.53;;;1.55;;
73672;SDS011;61972;19.480;-99.240;2023-10-08T02:49:20;3.13;;;1.20;;
73672;SDS011;61972;19.480;-99.240;2023-10-08T02:51:53;2.85;;;1.30;;
73672;SDS011;61972;19.480;-99.240;2023-10-08T02:54:21;2.35;;;1.40;;
73672;SDS011;61972;19.480;-99.240;2023-10-08T02:56:57;2.07;;;1.43;;
73672;SDS011;61972;19.480;-99.240;2023-10-08T02:59:31;4.82;;;1.40;;
73672;SDS011;61972;19.480;-99.240;2023-10-08T03:02:08;2.40;;;1.60;;
73672;SDS011;61972;19.480;-99.240;2023-10-08T03:04:44;4.18;;;1.80;;
73672;SDS011;61972;19.480;-99.240;2023-10-08T03:07:12;3.47;;;1.90;;
73672;SDS011;61972;19.480;-99.240;2023-10-08T03:09:47;3.90;;;2.03;;
73672;SDS011;61972;19.480;-99.240;2023-10-08T03:12:28;2.85;;;1.83;;
73672;SDS011;61972;19.480;-99.240;2023-10-08T03:15:05;5.00;;;2.20;;
73672;SDS011;61972;19.480;-99.240;2023-10-08T03:17:49;6.15;;;2.13;;
73672;SDS011;61972;19.480;-99.240;2023-10-08T03:20:19;3.88;;;2.38;;
73672;SDS011;61972;19.480;-99.240;2023-10-08T03:23:05;6.70;;;2.20;;
73672;SDS011;61972;19.480;-99.240;2023-10-08T03:25:37;3.53;;;1.90;;
73672;SDS011;61972;19.480;-99.240;2023-10-08T03:28:11;6.10;;;2.13;;
73672;SDS011;61972;19.480;-99.240;2023-10-08T03:30:41;5.45;;;2.22;;
73672;SDS011;61972;19.480;-99.240;2023-10-08T03:33:18;5.07;;;2.20;;
73672;SDS011;61972;19.480;-99.240;2023-10-08T03:35:52;4.60;;;2.30;;
73672;SDS011;61972;19.480;-99.240;2023-10-08T03:38:20;2.95;;;2.08;;
73672;SDS011;61972;19.480;-99.240;2023-10-08T03:41:12;4.03;;;2.10;;
73672;SDS011;61972;19.480;-99.240;2023-10-08T03:43:45;3.47;;;2.20;;
73672;SDS011;61972;19.480;-99.240;2023-10-08T03:46:41;3.88;;;2.40;;
73672;SDS011;61972;19.480;-99.240;2023-10-08T03:49:12;4.43;;;2.00;;
73672;SDS011;61972;19.480;-99.240;2023-10-08T03:51:48;4.20;;;2.05;;
73672;SDS011;61972;19.480;-99.240;2023-10-08T03:54:17;3.38;;;2.10;;
73672;SDS011;61972;19.480;-99.240;2023-10-08T03:57:00;3.20;;;1.98;;
73672;SDS011;61972;19.480;-99.240;2023-10-08T03:59:26;5.32;;;1.98;;
73672;SDS011;61972;19.480;-99.240;2023-10-08T04:01:57;2.43;;;1.70;;
73672;SDS011;61972;19.480;-99.240;2023-10-08T04:04:28;2.63;;;1.77;;
73672;SDS011;61972;19.480;-99.240;2023-10-08T04:07:17;4.40;;;2.00;;
73672;SDS011;61972;19.480;-99.240;2023-10-08T04:09:59;2.97;;;1.75;;
73672;SDS011;61972;19.480;-99.240;2023-10-08T04:12:35;2.47;;;1.80;;
73672;SDS011;61972;19.480;-99.240;2023-10-08T04:15:09;2.40;;;1.93;;
73672;SDS011;61972;19.480;-99.240;2023-10-08T04:17:38;5.15;;;1.85;;
73672;SDS011;61972;19.480;-99.240;2023-10-08T04:20:16;5.00;;;1.90;;
73672;SDS011;61972;19.480;-99.240;2023-10-08T04:23:01;2.97;;;1.73;;
73672;SDS011;61972;19.480;-99.240;2023-10-08T04:25:39;3.42;;;1.85;;
73672;SDS011;61972;19.480;-99.240;2023-10-08T04:28:08;2.30;;;1.70;;
73672;SDS011;61972;19.480;-99.240;2023-10-08T04:30:39;2.72;;;1.80;;
73672;SDS011;61972;19.480;-99.240;2023-10-08T04:33:07;2.38;;;1.85;;
73672;SDS011;61972;19.480;-99.240;2023-10-08T04:35:38;3.03;;;1.77;;
73672;SDS011;61972;19.480;-99.240;2023-10-08T04:38:18;3.05;;;1.80;;
73672;SDS011;61972;19.480;-99.240;2023-10-08T04:40:47;2.30;;;1.70;;
73672;SDS011;61972;19.480;-99.240;2023-10-08T04:43:17;3.95;;;1.90;;
73672;SDS011;61972;19.480;-99.240;2023-10-08T04:45:53;2.42;;;1.90;;
73672;SDS011;61972;19.480;-99.240;2023-10-08T04:48:22;4.38;;;2.00;;
73672;SDS011;61972;19.480;-99.240;2023-10-08T04:50:55;2.15;;;1.70;;
73672;SDS011;61972;19.480;-99.240;2023-10-08T04:53:25;2.40;;;1.80;;
73672;SDS011;61972;19.480;-99.240;2023-10-08T04:56:00;2.40;;;1.75;;
73672;SDS011;61972;19.480;-99.240;2023-10-08T04:58:47;2.78;;;1.92;;
73672;SDS011;61972;19.480;-99.240;2023-10-08T05:01:14;2.63;;;1.60;;
73672;SDS011;61972;19.480;-99.240;2023-10-08T05:06:21;2.10;;;1.70;;
73672;SDS011;61972;19.480;-99.240;2023-10-08T05:09:14;2.80;;;2.10;;
73672;SDS011;61972;19.480;-99.240;2023-10-08T05:11:47;2.20;;;1.60;;
73672;SDS011;61972;19.480;-99.240;2023-10-08T05:14:16;2.03;;;1.45;;
73672;SDS011;61972;19.480;-99.240;2023-10-08T05:16:58;3.22;;;1.70;;
73672;SDS011;61972;19.480;-99.240;2023-10-08T05:19:37;2.47;;;1.70;;
73672;SDS011;61972;19.480;-99.240;2023-10-08T05:22:13;2.40;;;1.70;;
73672;SDS011;61972;19.480;-99.240;2023-10-08T05:24:52;3.00;;;1.90;;
73672;SDS011;61972;19.480;-99.240;2023-10-08T05:27:37;2.85;;;1.80;;
73672;SDS011;61972;19.480;-99.240;2023-10-08T05:30:26;2.67;;;1.88;;
73672;SDS011;61972;19.480;-99.240;2023-10-08T05:33:02;2.60;;;1.80;;
73672;SDS011;61972;19.480;-99.240;2023-10-08T05:35:29;3.15;;;2.10;;
73672;SDS011;61972;19.480;-99.240;2023-10-08T05:38:19;2.55;;;1.60;;
73672;SDS011;61972;19.480;-99.240;2023-10-08T05:40:55;2.25;;;1.50;;
73672;SDS011;61972;19.480;-99.240;2023-10-08T05:43:29;2.70;;;1.90;;
73672;SDS011;61972;19.480;-99.240;2023-10-08T05:46:05;2.20;;;1.57;;
73672;SDS011;61972;19.480;-99.240;2023-10-08T05:48:47;3.15;;;1.60;;
73672;SDS011;61972;19.480;-99.240;2023-10-08T05:51:41;2.00;;;1.60;;
73672;SDS011;61972;19.480;-99.240;2023-10-08T05:54:21;2.78;;;1.60;;
73672;SDS011;61972;19.480;-99.240;2023-10-08T05:56:58;2.42;;;1.67;;
73672;SDS011;61972;19.480;-99.240;2023-10-08T05:59:40;2.40;;;1.63;;
73672;SDS011;61972;19.480;-99.240;2023-10-08T06:02:32;1.92;;;1.40;;
73672;SDS011;61972;19.480;-99.240;2023-10-08T06:04:59;2.38;;;1.83;;
73672;SDS011;61972;19.480;-99.240;2023-10-08T06:07:39;3.00;;;1.40;;
73672;SDS011;61972;19.480;-99.240;2023-10-08T06:10:22;2.08;;;1.50;;
73672;SDS011;61972;19.480;-99.240;2023-10-08T06:12:58;2.07;;;1.40;;
73672;SDS011;61972;19.480;-99.240;2023-10-08T06:15:36;1.92;;;1.52;;
73672;SDS011;61972;19.480;-99.240;2023-10-08T06:18:27;2.55;;;1.60;;
73672;SDS011;61972;19.480;-99.240;2023-10-08T06:21:11;2.25;;;1.55;;
73672;SDS011;61972;19.480;-99.240;2023-10-08T06:23:40;2.17;;;1.58;;
73672;SDS011;61972;19.480;-99.240;2023-10-08T06:26:11;2.03;;;1.60;;
73672;SDS011;61972;19.480;-99.240;2023-10-08T06:28:38;3.10;;;1.60;;
73672;SDS011;61972;19.480;-99.240;2023-10-08T06:31:05;2.30;;;1.67;;
73672;SDS011;61972;19.480;-99.240;2023-10-08T06:33:37;2.00;;;1.50;;
73672;SDS011;61972;19.480;-99.240;2023-10-08T06:36:04;2.78;;;1.85;;
73672;SDS011;61972;19.480;-99.240;2023-10-08T06:38:36;2.57;;;1.67;;
73672;SDS011;61972;19.480;-99.240;2023-10-08T06:41:08;2.08;;;1.50;;
73672;SDS011;61972;19.480;-99.240;2023-10-08T06:43:40;2.50;;;1.60;;
73672;SDS011;61972;19.480;-99.240;2023-10-08T06:46:15;2.35;;;1.60;;
73672;SDS011;61972;19.480;-99.240;2023-10-08T06:48:44;2.13;;;1.70;;
73672;SDS011;61972;19.480;-99.240;2023-10-08T06:51:12;2.70;;;1.60;;
73672;SDS011;61972;19.480;-99.240;2023-10-08T06:53:42;2.15;;;1.60;;
73672;SDS011;61972;19.480;-99.240;2023-10-08T06:56:10;2.30;;;1.48;;
73672;SDS011;61972;19.480;-99.240;2023-10-08T06:58:41;2.03;;;1.70;;
73672;SDS011;61972;19.480;-99.240;2023-10-08T07:01:14;1.92;;;1.42;;
73672;SDS011;61972;19.480;-99.240;2023-10-08T07:03:49;2.50;;;1.73;;
73672;SDS011;61972;19.480;-99.240;2023-10-08T07:06:17;3.65;;;1.75;;
73672;SDS011;61972;19.480;-99.240;2023-10-08T07:09:13;2.17;;;1.60;;
73672;SDS011;61972;19.480;-99.240;2023-10-08T07:11:51;2.20;;;1.60;;
73672;SDS011;61972;19.480;-99.240;2023-10-08T07:14:25;2.05;;;1.30;;
73672;SDS011;61972;19.480;-99.240;2023-10-08T07:16:53;2.57;;;1.70;;
73672;SDS011;61972;19.480;-99.240;2023-10-08T07:19:24;2.50;;;1.58;;
73672;SDS011;61972;19.480;-99.240;2023-10-08T07:22:00;2.40;;;1.83;;
73672;SDS011;61972;19.480;-99.240;2023-10-08T07:24:28;2.42;;;1.52;;
73672;SDS011;61972;19.480;-99.240;2023-10-08T07:26:56;2.40;;;1.55;;
73672;SDS011;61972;19.480;-99.240;2023-10-08T07:29:23;2.13;;;1.60;;
73672;SDS011;61972;19.480;-99.240;2023-10-08T07:31:50;2.35;;;1.60;;
73672;SDS011;61972;19.480;-99.240;2023-10-08T07:34:18;2.47;;;1.90;;
73672;SDS011;61972;19.480;-99.240;2023-10-08T07:36:51;2.85;;;1.60;;
73672;SDS011;61972;19.480;-99.240;2023-10-08T07:39:20;2.30;;;1.67;;
73672;SDS011;61972;19.480;-99.240;2023-10-08T07:41:52;1.73;;;1.23;;
73672;SDS011;61972;19.480;-99.240;2023-10-08T07:44:21;2.00;;;1.48;;
73672;SDS011;61972;19.480;-99.240;2023-10-08T07:46:48;2.17;;;1.50;;
73672;SDS011;61972;19.480;-99.240;2023-10-08T07:49:16;2.22;;;1.50;;
73672;SDS011;61972;19.480;-99.240;2023-10-08T07:51:43;1.90;;;1.50;;
73672;SDS011;61972;19.480;-99.240;2023-10-08T07:54:19;1.90;;;1.40;;
73672;SDS011;61972;19.480;-99.240;2023-10-08T07:56:48;1.77;;;1.35;;
73672;SDS011;61972;19.480;-99.240;2023-10-08T07:59:17;2.10;;;1.65;;
73672;SDS011;61972;19.480;-99.240;2023-10-08T08:01:45;2.00;;;1.58;;
73672;SDS011;61972;19.480;-99.240;2023-10-08T08:04:11;1.90;;;1.40;;
73672;SDS011;61972;19.480;-99.240;2023-10-08T08:06:50;2.10;;;1.40;;
73672;SDS011;61972;19.480;-99.240;2023-10-08T08:09:18;2.50;;;1.23;;
73672;SDS011;61972;19.480;-99.240;2023-10-08T08:11:48;2.13;;;1.42;;
73672;SDS011;61972;19.480;-99.240;2023-10-08T08:14:15;1.95;;;1.50;;
73672;SDS011;61972;19.480;-99.240;2023-10-08T08:16:50;2.03;;;1.52;;
73672;SDS011;61972;19.480;-99.240;2023-10-08T08:19:17;1.87;;;1.40;;
73672;SDS011;61972;19.480;-99.240;2023-10-08T08:21:49;2.25;;;1.48;;
73672;SDS011;61972;19.480;-99.240;2023-10-08T08:24:17;2.13;;;1.70;;
73672;SDS011;61972;19.480;-99.240;2023-10-08T08:26:54;1.83;;;1.42;;
73672;SDS011;61972;19.480;-99.240;2023-10-08T08:29:34;2.13;;;1.63;;
73672;SDS011;61972;19.480;-99.240;2023-10-08T08:32:10;2.10;;;1.40;;
73672;SDS011;61972;19.480;-99.240;2023-10-08T08:34:47;2.00;;;1.33;;
73672;SDS011;61972;19.480;-99.240;2023-10-08T08:37:18;2.33;;;1.50;;
73672;SDS011;61972;19.480;-99.240;2023-10-08T08:39:51;2.20;;;1.55;;
73672;SDS011;61972;19.480;-99.240;2023-10-08T08:42:17;1.90;;;1.50;;
73672;SDS011;61972;19.480;-99.240;2023-10-08T08:44:52;2.13;;;1.40;;
73672;SDS011;61972;19.480;-99.240;2023-10-08T08:47:22;1.80;;;1.30;;
73672;SDS011;61972;19.480;-99.240;2023-10-08T08:49:53;2.15;;;1.52;;
73672;SDS011;61972;19.480;-99.240;2023-10-08T08:52:22;1.83;;;1.35;;
73672;SDS011;61972;19.480;-99.240;2023-10-08T08:54:49;2.30;;;1.50;;
73672;SDS011;61972;19.480;-99.240;2023-10-08T08:57:23;1.70;;;1.30;;
73672;SDS011;61972;19.480;-99.240;2023-10-08T08:59:52;1.83;;;1.23;;
73672;SDS011;61972;19.480;-99.240;2023-10-08T09:02:19;2.10;;;1.30;;
73672;SDS011;61972;19.480;-99.240;2023-10-08T09:04:47;2.25;;;1.52;;
73672;SDS011;61972;19.480;-99.240;2023-10-08T09:07:15;2.08;;;1.40;;
73672;SDS011;61972;19.480;-99.240;2023-10-08T09:09:49;1.77;;;1.23;;
73672;SDS011;61972;19.480;-99.240;2023-10-08T09:12:18;1.98;;;1.40;;
73672;SDS011;61972;19.480;-99.240;2023-10-08T09:14:47;2.15;;;1.50;;
73672;SDS011;61972;19.480;-99.240;2023-10-08T09:17:13;3.28;;;1.30;;
73672;SDS011;61972;19.480;-99.240;2023-10-08T09:19:43;2.03;;;1.38;;
73672;SDS011;61972;19.480;-99.240;2023-10-08T09:22:14;1.80;;;1.30;;
73672;SDS011;61972;19.480;-99.240;2023-10-08T09:24:44;1.85;;;1.35;;
73672;SDS011;61972;19.480;-99.240;2023-10-08T09:27:12;2.10;;;1.42;;
73672;SDS011;61972;19.480;-99.240;2023-10-08T09:29:39;2.10;;;1.50;;
73672;SDS011;61972;19.480;-99.240;2023-10-08T09:32:09;1.90;;;1.45;;
73672;SDS011;61972;19.480;-99.240;2023-10-08T09:34:36;1.97;;;1.30;;
73672;SDS011;61972;19.480;-99.240;2023-10-08T09:37:03;1.80;;;1.40;;
73672;SDS011;61972;19.480;-99.240;2023-10-08T09:39:29;2.03;;;1.33;;
73672;SDS011;61972;19.480;-99.240;2023-10-08T09:42:02;2.20;;;1.30;;
73672;SDS011;61972;19.480;-99.240;2023-10-08T09:44:31;1.98;;;1.30;;
73672;SDS011;61972;19.480;-99.240;2023-10-08T09:47:05;2.17;;;1.40;;
73672;SDS011;61972;19.480;-99.240;2023-10-08T09:49:40;3.35;;;1.20;;
73672;SDS011;61972;19.480;-99.240;2023-10-08T09:52:23;2.17;;;1.40;;
73672;SDS011;61972;19.480;-99.240;2023-10-08T09:55:02;2.00;;;1.30;;
73672;SDS011;61972;19.480;-99.240;2023-10-08T09:57:38;2.88;;;1.50;;
73672;SDS011;61972;19.480;-99.240;2023-10-08T10:00:05;2.03;;;1.27;;
73672;SDS011;61972;19.480;-99.240;2023-10-08T10:02:40;1.77;;;1.38;;
73672;SDS011;61972;19.480;-99.240;2023-10-08T10:05:12;1.80;;;1.20;;
73672;SDS011;61972;19.480;-99.240;2023-10-08T10:07:40;1.73;;;1.20;;
73672;SDS011;61972;19.480;-99.240;2023-10-08T10:10:27;2.20;;;1.45;;
73672;SDS011;61972;19.480;-99.240;2023-10-08T10:13:03;1.80;;;1.20;;
73672;SDS011;61972;19.480;-99.240;2023-10-08T10:15:36;1.77;;;1.30;;
73672;SDS011;61972;19.480;-99.240;2023-10-08T10:20:57;1.95;;;1.30;;
73672;SDS011;61972;19.480;-99.240;2023-10-08T10:26:31;1.80;;;1.20;;
73672;SDS011;61972;19.480;-99.240;2023-10-08T10:31:44;2.00;;;1.40;;
73672;SDS011;61972;19.480;-99.240;2023-10-08T10:34:15;1.90;;;1.15;;
73672;SDS011;61972;19.480;-99.240;2023-10-08T10:36:46;1.83;;;1.30;;
73672;SDS011;61972;19.480;-99.240;2023-10-08T10:39:20;2.23;;;1.13;;
73672;SDS011;61972;19.480;-99.240;2023-10-08T10:41:57;1.63;;;1.20;;
73672;SDS011;61972;19.480;-99.240;2023-10-08T10:44:27;2.00;;;1.30;;
73672;SDS011;61972;19.480;-99.240;2023-10-08T10:46:55;1.73;;;1.10;;
73672;SDS011;61972;19.480;-99.240;2023-10-08T10:49:40;1.70;;;1.30;;
73672;SDS011;61972;19.480;-99.240;2023-10-08T10:52:17;1.73;;;1.20;;
73672;SDS011;61972;19.480;-99.240;2023-10-08T10:55:01;1.70;;;1.23;;
73672;SDS011;61972;19.480;-99.240;2023-10-08T10:57:55;1.60;;;1.10;;
73672;SDS011;61972;19.480;-99.240;2023-10-08T11:00:28;1.80;;;1.10;;
73672;SDS011;61972;19.480;-99.240;2023-10-08T11:02:58;1.70;;;1.30;;
73672;SDS011;61972;19.480;-99.240;2023-10-08T11:05:33;2.63;;;1.20;;
73672;SDS011;61972;19.480;-99.240;2023-10-08T11:08:05;2.17;;;1.48;;
73672;SDS011;61972;19.480;-99.240;2023-10-08T11:10:34;1.75;;;1.30;;
73672;SDS011;61972;19.480;-99.240;2023-10-08T11:13:15;1.90;;;1.10;;
73672;SDS011;61972;19.480;-99.240;2023-10-08T11:15:44;1.63;;;1.20;;
73672;SDS011;61972;19.480;-99.240;2023-10-08T11:18:26;1.77;;;1.07;;
73672;SDS011;61972;19.480;-99.240;2023-10-08T11:21:04;2.47;;;1.30;;
73672;SDS011;61972;19.480;-99.240;2023-10-08T11:23:44;1.83;;;1.30;;
73672;SDS011;61972;19.480;-99.240;2023-10-08T11:26:21;2.13;;;1.30;;
73672;SDS011;61972;19.480;-99.240;2023-10-08T11:28:57;2.05;;;1.30;;
73672;SDS011;61972;19.480;-99.240;2023-10-08T11:31:26;1.83;;;1.30;;
73672;SDS011;61972;19.480;-99.240;2023-10-08T11:33:58;2.00;;;1.25;;
73672;SDS011;61972;19.480;-99.240;2023-10-08T11:36:26;2.00;;;1.35;;
73672;SDS011;61972;19.480;-99.240;2023-10-08T11:38:54;1.70;;;1.30;;
73672;SDS011;61972;19.480;-99.240;2023-10-08T11:41:33;1.50;;;1.00;;
73672;SDS011;61972;19.480;-99.240;2023-10-08T11:44:15;1.70;;;1.10;;
73672;SDS011;61972;19.480;-99.240;2023-10-08T11:46:45;2.38;;;1.35;;
73672;SDS011;61972;19.480;-99.240;2023-10-08T11:49:17;1.52;;;1.05;;
73672;SDS011;61972;19.480;-99.240;2023-10-08T11:51:44;1.88;;;1.20;;
73672;SDS011;61972;19.480;-99.240;2023-10-08T11:54:13;1.50;;;1.13;;
73672;SDS011;61972;19.480;-99.240;2023-10-08T11:56:40;1.60;;;1.17;;
73672;SDS011;61972;19.480;-99.240;2023-10-08T11:59:06;1.80;;;1.20;;
73672;SDS011;61972;19.480;-99.240;2023-10-08T12:01:36;1.88;;;1.30;;
73672;SDS011;61972;19.480;-99.240;2023-10-08T12:04:07;1.70;;;1.13;;
73672;SDS011;61972;19.480;-99.240;2023-10-08T12:06:43;1.50;;;1.10;;
73672;SDS011;61972;19.480;-99.240;2023-10-08T12:09:14;1.53;;;1.00;;
73672;SDS011;61972;19.480;-99.240;2023-10-08T12:11:40;5.45;;;1.20;;
73672;SDS011;61972;19.480;-99.240;2023-10-08T12:14:06;1.90;;;1.20;;
73672;SDS011;61972;19.480;-99.240;2023-10-08T12:16:32;1.50;;;0.90;;
73672;SDS011;61972;19.480;-99.240;2023-10-08T12:19:02;2.63;;;1.20;;
73672;SDS011;61972;19.480;-99.240;2023-10-08T12:21:40;1.70;;;1.17;;
73672;SDS011;61972;19.480;-99.240;2023-10-08T12:24:07;1.52;;;1.05;;
73672;SDS011;61972;19.480;-99.240;2023-10-08T12:26:37;2.38;;;1.40;;
73672;SDS011;61972;19.480;-99.240;2023-10-08T12:29:11;1.73;;;1.00;;
73672;SDS011;61972;19.480;-99.240;2023-10-08T12:31:44;2.30;;;1.10;;
73672;SDS011;61972;19.480;-99.240;2023-10-08T12:34:15;1.60;;;1.00;;
73672;SDS011;61972;19.480;-99.240;2023-10-08T12:36:42;1.65;;;1.10;;
73672;SDS011;61972;19.480;-99.240;2023-10-08T12:39:08;1.45;;;1.00;;
73672;SDS011;61972;19.480;-99.240;2023-10-08T12:41:40;1.60;;;1.00;;
73672;SDS011;61972;19.480;-99.240;2023-10-08T12:44:09;1.73;;;1.20;;
73672;SDS011;61972;19.480;-99.240;2023-10-08T12:46:36;1.60;;;1.00;;
73672;SDS011;61972;19.480;-99.240;2023-10-08T12:49:02;1.60;;;1.00;;
73672;SDS011;61972;19.480;-99.240;2023-10-08T12:51:29;1.58;;;1.20;;
73672;SDS011;61972;19.480;-99.240;2023-10-08T12:53:59;1.70;;;1.10;;
73672;SDS011;61972;19.480;-99.240;2023-10-08T12:56:29;1.70;;;1.20;;
73672;SDS011;61972;19.480;-99.240;2023-10-08T12:59:10;1.50;;;1.00;;
73672;SDS011;61972;19.480;-99.240;2023-10-08T13:01:45;1.90;;;1.00;;
73672;SDS011;61972;19.480;-99.240;2023-10-08T13:04:19;4.22;;;1.33;;
73672;SDS011;61972;19.480;-99.240;2023-10-08T13:07:00;1.60;;;1.00;;
73672;SDS011;61972;19.480;-99.240;2023-10-08T13:09:28;2.05;;;1.30;;
73672;SDS011;61972;19.480;-99.240;2023-10-08T13:11:57;1.97;;;1.20;;
73672;SDS011;61972;19.480;-99.240;2023-10-08T13:14:25;1.60;;;1.10;;
73672;SDS011;61972;19.480;-99.240;2023-10-08T13:16:51;1.88;;;1.08;;
73672;SDS011;61972;19.480;-99.240;2023-10-08T13:19:21;1.70;;;1.02;;
73672;SDS011;61972;19.480;-99.240;2023-10-08T13:21:51;1.80;;;1.05;;
73672;SDS011;61972;19.480;-99.240;2023-10-08T13:24:18;1.83;;;1.13;;
73672;SDS011;61972;19.480;-99.240;2023-10-08T13:26:44;1.42;;;0.90;;
73672;SDS011;61972;19.480;-99.240;2023-10-08T13:29:13;2.15;;;1.17;;
73672;SDS011;61972;19.480;-99.240;2023-10-08T13:31:39;2.13;;;1.08;;
73672;SDS011;61972;19.480;-99.240;2023-10-08T13:34:06;1.48;;;0.95;;
73672;SDS011;61972;19.480;-99.240;2023-10-08T13:36:37;1.47;;;0.90;;
73672;SDS011;61972;19.480;-99.240;2023-10-08T13:39:06;3.17;;;0.93;;
73672;SDS011;61972;19.480;-99.240;2023-10-08T13:41:35;1.55;;;1.10;;
73672;SDS011;61972;19.480;-99.240;2023-10-08T13:44:03;1.27;;;0.90;;
73672;SDS011;61972;19.480;-99.240;2023-10-08T13:46:33;2.35;;;1.00;;
73672;SDS011;61972;19.480;-99.240;2023-10-08T13:49:01;1.87;;;1.00;;
73672;SDS011;61972;19.480;-99.240;2023-10-08T13:51:28;1.67;;;0.90;;
73672;SDS011;61972;19.480;-99.240;2023-10-08T13:53:54;1.60;;;1.00;;
73672;SDS011;61972;19.480;-99.240;2023-10-08T13:56:25;1.35;;;1.00;;
73672;SDS011;61972;19.480;-99.240;2023-10-08T13:58:55;1.60;;;1.20;;
73672;SDS011;61972;19.480;-99.240;2023-10-08T14:01:30;1.40;;;0.83;;
73672;SDS011;61972;19.480;-99.240;2023-10-08T14:03:59;1.65;;;1.00;;
73672;SDS011;61972;19.480;-99.240;2023-10-08T14:06:33;1.50;;;1.10;;
73672;SDS011;61972;19.480;-99.240;2023-10-08T14:09:02;2.55;;;1.10;;
73672;SDS011;61972;19.480;-99.240;2023-10-08T14:11:33;1.70;;;1.00;;
73672;SDS011;61972;19.480;-99.240;2023-10-08T14:14:00;1.20;;;0.70;;
73672;SDS011;61972;19.480;-99.240;2023-10-08T14:16:36;1.50;;;0.90;;
73672;SDS011;61972;19.480;-99.240;2023-10-08T14:19:07;1.90;;;1.10;;
73672;SDS011;61972;19.480;-99.240;2023-10-08T14:21:38;1.48;;;0.98;;
73672;SDS011;61972;19.480;-99.240;2023-10-08T14:24:17;1.40;;;0.90;;
73672;SDS011;61972;19.480;-99.240;2023-10-08T14:26:44;1.40;;;0.70;;
73672;SDS011;61972;19.480;-99.240;2023-10-08T14:29:17;1.50;;;0.98;;
73672;SDS011;61972;19.480;-99.240;2023-10-08T14:31:43;1.50;;;0.90;;
73672;SDS011;61972;19.480;-99.240;2023-10-08T14:34:14;1.60;;;0.98;;
73672;SDS011;61972;19.480;-99.240;2023-10-08T14:36:41;1.50;;;1.00;;
73672;SDS011;61972;19.480;-99.240;2023-10-08T14:39:34;1.40;;;0.93;;
73672;SDS011;61972;19.480;-99.240;2023-10-08T14:42:19;1.50;;;0.70;;
73672;SDS011;61972;19.480;-99.240;2023-10-08T14:45:04;1.58;;;0.85;;
73672;SDS011;61972;19.480;-99.240;2023-10-08T14:47:38;1.60;;;1.00;;
73672;SDS011;61972;19.480;-99.240;2023-10-08T14:50:06;1.50;;;0.90;;
73672;SDS011;61972;19.480;-99.240;2023-10-08T14:52:43;1.73;;;0.83;;
73672;SDS011;61972;19.480;-99.240;2023-10-08T14:55:10;1.67;;;0.80;;
73672;SDS011;61972;19.480;-99.240;2023-10-08T14:57:39;1.20;;;0.80;;
73672;SDS011;61972;19.480;-99.240;2023-10-08T15:00:07;1.80;;;0.80;;
73672;SDS011;61972;19.480;-99.240;2023-10-08T15:02:35;2.00;;;0.80;;